Time;durP1;ratioP1;P1;durP2;ratioP2;P2;SDS_P1;SDS_P2;PMS_P1;PMS_P2;Temp;Humidity;BMP_temperature;BMP_pressure;BME280_temperature;BME280_humidity;BME280_pressure;Samples;Min_cycle;Max_cycle;Signal;HPM_P1;HPM_P2
2022/04/08 00:02:04;;;;;;;17.83;4.70;;;9.60;99.90;;;;;;5133568;27;20747;-67
2022/04/08 00:04:32;;;;;;;11.37;4.27;;;9.60;99.90;;;;;;5133600;27;20238;-65
2022/04/08 00:06:59;;;;;;;15.53;4.40;;;9.60;99.90;;;;;;5133505;27;20226;-66
2022/04/08 00:09:28;;;;;;;19.63;4.10;;;9.50;99.90;;;;;;5133709;27;20230;-66
2022/04/08 00:11:56;;;;;;;15.70;4.47;;;9.50;99.90;;;;;;5133444;27;20245;-66
2022/04/08 00:14:22;;;;;;;18.83;4.60;;;9.50;99.90;;;;;;5133120;27;20207;-65
2022/04/08 00:16:49;;;;;;;19.57;4.17;;;9.50;99.90;;;;;;5133455;27;20230;-67
2022/04/08 00:19:16;;;;;;;16.27;4.67;;;9.40;99.90;;;;;;5133194;27;20237;-67
2022/04/08 00:21:43;;;;;;;17.03;4.97;;;9.40;99.90;;;;;;5133344;27;20237;-67
2022/04/08 00:24:10;;;;;;;16.17;5.00;;;9.30;99.90;;;;;;5132495;27;20242;-66
2022/04/08 00:26:38;;;;;;;13.97;5.23;;;9.30;99.90;;;;;;5133205;27;20250;-66
2022/04/08 00:29:05;;;;;;;16.90;5.57;;;9.30;99.90;;;;;;5133026;27;20246;-67
2022/04/08 00:31:32;;;;;;;20.33;6.07;;;9.20;99.90;;;;;;5133330;27;20223;-66
2022/04/08 00:33:59;;;;;;;15.33;5.97;;;9.20;99.90;;;;;;5133105;27;20625;-66
2022/04/08 00:36:26;;;;;;;20.63;6.00;;;9.20;99.90;;;;;;5132839;27;20254;-66
2022/04/08 00:38:53;;;;;;;19.13;5.33;;;9.20;99.90;;;;;;5132678;27;20242;-66
2022/04/08 00:41:20;;;;;;;15.13;5.10;;;9.10;99.90;;;;;;5132838;27;20245;-66
2022/04/08 00:43:48;;;;;;;11.30;4.60;;;9.10;99.90;;;;;;5132930;27;20705;-65
2022/04/08 00:46:15;;;;;;;15.30;4.80;;;9.10;99.90;;;;;;5132794;28;20238;-65
2022/04/08 00:48:42;;;;;;;13.00;4.97;;;9.00;99.90;;;;;;5132657;28;20244;-67
2022/04/08 00:51:10;;;;;;;15.87;4.63;;;9.00;99.90;;;;;;5133153;28;20206;-66
2022/04/08 00:53:38;;;;;;;16.67;5.17;;;9.00;99.90;;;;;;5132569;28;20297;-67
2022/04/08 00:56:05;;;;;;;15.50;5.13;;;8.90;99.90;;;;;;5133130;28;20563;-66
2022/04/08 00:58:33;;;;;;;17.13;5.53;;;8.90;99.90;;;;;;5132712;28;20241;-66
2022/04/08 01:01:01;;;;;;;17.53;5.17;;;8.90;99.90;;;;;;5133060;28;20294;-66
2022/04/08 01:03:28;;;;;;;19.47;5.23;;;8.80;99.90;;;;;;5132960;28;20259;-67
2022/04/08 01:05:55;;;;;;;16.67;5.03;;;8.80;99.90;;;;;;5132811;28;20289;-66
2022/04/08 01:08:22;;;;;;;18.57;5.20;;;8.80;99.90;;;;;;5132656;27;20318;-66
2022/04/08 01:10:50;;;;;;;17.53;5.47;;;8.70;99.90;;;;;;5132436;28;20249;-66
2022/04/08 01:13:17;;;;;;;17.70;6.73;;;8.70;99.90;;;;;;5132926;28;20686;-67
2022/04/08 01:15:44;;;;;;;21.27;8.73;;;8.70;99.90;;;;;;5132540;28;20295;-67
2022/04/08 01:18:13;;;;;;;16.60;7.80;;;8.70;99.90;;;;;;5132562;28;20199;-66
2022/04/08 01:20:40;;;;;;;24.60;9.93;;;8.70;99.90;;;;;;5132604;28;20643;-67
2022/04/08 01:23:07;;;;;;;19.20;7.10;;;8.60;99.90;;;;;;5132366;27;20290;-66
2022/04/08 01:25:35;;;;;;;19.57;7.67;;;8.60;99.90;;;;;;5132596;27;20247;-66
2022/04/08 01:28:02;;;;;;;22.00;6.97;;;8.60;99.90;;;;;;5132522;28;20294;-66
2022/04/08 01:30:29;;;;;;;19.67;7.80;;;8.60;99.90;;;;;;5132160;28;20254;-66
2022/04/08 01:32:56;;;;;;;18.20;6.87;;;8.60;99.90;;;;;;5132356;27;20298;-66
2022/04/08 01:35:23;;;;;;;16.53;7.20;;;8.50;99.90;;;;;;5133728;27;20754;-66
2022/04/08 01:37:50;;;;;;;18.50;7.37;;;8.50;99.90;;;;;;5136236;27;20608;-65
2022/04/08 01:40:17;;;;;;;34.03;16.50;;;8.50;99.90;;;;;;5136089;27;20245;-66
2022/04/08 01:42:46;;;;;;;22.17;8.43;;;8.50;99.90;;;;;;5136412;27;20684;-67
2022/04/08 01:45:13;;;;;;;21.37;8.30;;;8.50;99.90;;;;;;5135992;27;20238;-66
2022/04/08 01:47:40;;;;;;;23.37;7.80;;;8.50;99.90;;;;;;5135756;27;20234;-66
2022/04/08 01:50:08;;;;;;;18.67;7.23;;;8.50;99.90;;;;;;5135948;27;20238;-67
2022/04/08 01:52:35;;;;;;;18.37;7.27;;;8.50;99.90;;;;;;5135983;27;20241;-66
2022/04/08 01:55:05;;;;;;;16.43;6.90;;;8.50;99.90;;;;;;5135831;27;20203;-67
2022/04/08 01:57:32;;;;;;;24.77;7.13;;;8.50;99.90;;;;;;5136073;27;20231;-66
2022/04/08 02:00:00;;;;;;;16.03;6.17;;;8.50;99.90;;;;;;5136209;27;20241;-66
2022/04/08 02:02:27;;;;;;;16.30;5.77;;;8.50;99.90;;;;;;5135858;27;20199;-66
2022/04/08 02:04:54;;;;;;;11.33;5.73;;;8.50;99.90;;;;;;5135847;27;20242;-67
2022/04/08 02:07:20;;;;;;;22.47;6.97;;;8.40;99.90;;;;;;5135614;27;20317;-66
2022/04/08 02:09:47;;;;;;;18.87;6.93;;;8.40;99.90;;;;;;5135702;27;20682;-66
2022/04/08 02:12:14;;;;;;;15.33;7.87;;;8.40;99.90;;;;;;5135934;27;20632;-66
2022/04/08 02:14:41;;;;;;;21.57;8.27;;;8.40;99.90;;;;;;5135862;27;20285;-66
2022/04/08 02:17:09;;;;;;;23.07;7.97;;;8.40;99.90;;;;;;5136131;27;20234;-65
2022/04/08 02:19:36;;;;;;;19.83;7.13;;;8.40;99.90;;;;;;5135449;27;20297;-66
2022/04/08 02:22:04;;;;;;;20.63;6.03;;;8.40;99.90;;;;;;5135438;27;20246;-66
2022/04/08 02:24:32;;;;;;;16.40;6.63;;;8.30;99.90;;;;;;5135219;27;20213;-67
2022/04/08 02:26:59;;;;;;;20.23;8.50;;;8.30;99.90;;;;;;5135674;27;20234;-67
2022/04/08 02:29:26;;;;;;;18.87;8.70;;;8.30;99.90;;;;;;5135725;27;20231;-67
2022/04/08 02:31:54;;;;;;;16.53;7.90;;;8.30;99.90;;;;;;5135204;27;20261;-66
2022/04/08 02:34:22;;;;;;;17.03;7.20;;;8.30;99.90;;;;;;5135878;27;20206;-66
2022/04/08 02:36:50;;;;;;;16.00;6.50;;;8.20;99.90;;;;;;5135115;27;20265;-66
2022/04/08 02:39:18;;;;;;;16.60;5.93;;;8.20;99.90;;;;;;5135117;27;20206;-66
2022/04/08 02:41:45;;;;;;;17.17;5.70;;;8.20;99.90;;;;;;5135438;27;20210;-66
2022/04/08 02:44:12;;;;;;;16.13;5.33;;;8.20;99.90;;;;;;5135340;27;20703;-67
2022/04/08 02:46:39;;;;;;;12.57;5.33;;;8.20;99.90;;;;;;5134622;27;20764;-66
2022/04/08 02:49:06;;;;;;;17.53;4.83;;;8.10;99.90;;;;;;5135194;27;20309;-66
2022/04/08 02:51:34;;;;;;;14.83;5.23;;;8.10;99.90;;;;;;5135128;27;20598;-66
2022/04/08 02:54:01;;;;;;;18.90;5.63;;;8.10;99.90;;;;;;5135023;27;20242;-67
2022/04/08 02:56:28;;;;;;;16.77;6.43;;;8.10;99.90;;;;;;5134674;27;20241;-68
2022/04/08 02:58:57;;;;;;;12.63;5.90;;;8.00;99.90;;;;;;5135047;27;20234;-68
2022/04/08 03:01:24;;;;;;;18.47;7.20;;;8.00;99.90;;;;;;5134549;27;20207;-68
2022/04/08 03:03:50;;;;;;;17.37;6.33;;;8.10;99.90;;;;;;5134651;27;20241;-67
2022/04/08 03:06:18;;;;;;;16.07;5.90;;;8.10;99.90;;;;;;5134476;27;20289;-68
2022/04/08 03:08:46;;;;;;;12.13;5.20;;;8.10;99.90;;;;;;5134460;27;20219;-68
2022/04/08 03:11:13;;;;;;;13.73;5.57;;;8.00;99.90;;;;;;5134764;27;20241;-67
2022/04/08 03:13:40;;;;;;;15.00;5.73;;;8.00;99.90;;;;;;5134204;27;20206;-68
2022/04/08 03:16:07;;;;;;;16.27;4.57;;;8.00;99.90;;;;;;5134783;27;20728;-68
2022/04/08 03:18:33;;;;;;;18.77;6.13;;;8.00;99.90;;;;;;5134094;27;20199;-68
2022/04/08 03:21:00;;;;;;;12.20;5.10;;;7.90;99.90;;;;;;5134559;27;20255;-67
2022/04/08 03:23:27;;;;;;;18.07;5.30;;;7.90;99.90;;;;;;5134381;27;20202;-66
2022/04/08 03:25:56;;;;;;;15.00;5.43;;;7.90;99.90;;;;;;5134258;27;20207;-68
2022/04/08 03:28:23;;;;;;;16.53;6.30;;;7.90;99.90;;;;;;5133992;27;20261;-68
2022/04/08 03:30:49;;;;;;;17.13;5.80;;;7.80;99.90;;;;;;5134009;27;20255;-68
2022/04/08 03:33:16;;;;;;;12.40;5.17;;;7.80;99.90;;;;;;5133688;27;20237;-67
2022/04/08 03:35:43;;;;;;;9.73;4.90;;;7.90;99.90;;;;;;5133771;27;20270;-67
2022/04/08 03:38:10;;;;;;;18.77;6.23;;;8.00;99.90;;;;;;5134138;27;20245;-68
2022/04/08 03:40:37;;;;;;;13.20;5.30;;;8.00;99.90;;;;;;5134199;27;20260;-67
2022/04/08 03:43:05;;;;;;;15.03;5.67;;;8.00;99.90;;;;;;5134017;27;20234;-68
2022/04/08 03:45:32;;;;;;;16.37;6.00;;;8.00;99.90;;;;;;5133526;27;20294;-67
2022/04/08 03:47:59;;;;;;;15.47;5.77;;;8.00;99.90;;;;;;5133890;27;20313;-67
2022/04/08 03:50:26;;;;;;;18.07;6.10;;;8.00;99.90;;;;;;5133714;27;20294;-68
2022/04/08 03:52:53;;;;;;;16.93;6.07;;;8.00;99.90;;;;;;5134012;27;20230;-68
2022/04/08 03:55:20;;;;;;;16.23;6.67;;;8.00;99.90;;;;;;5133691;27;20701;-69
2022/04/08 03:57:47;;;;;;;15.73;6.30;;;7.90;99.90;;;;;;5133274;27;20290;-69
2022/04/08 04:00:17;;;;;;;19.90;6.50;;;7.90;99.90;;;;;;5133478;27;20203;-68
2022/04/08 04:02:44;;;;;;;20.07;6.17;;;7.90;99.90;;;;;;5133400;27;20202;-66
2022/04/08 04:05:11;;;;;;;15.53;6.40;;;7.90;99.90;;;;;;5133562;27;20327;-67
2022/04/08 04:07:39;;;;;;;18.50;7.60;;;7.90;99.90;;;;;;5133293;27;20225;-68
2022/04/08 04:10:07;;;;;;;25.60;8.70;;;7.90;99.90;;;;;;5133605;27;20666;-67
2022/04/08 04:12:34;;;;;;;22.03;9.77;;;7.90;99.90;;;;;;5133334;27;20302;-68
2022/04/08 04:15:03;;;;;;;16.80;7.20;;;7.90;99.90;;;;;;5133460;27;20208;-68
2022/04/08 04:17:32;;;;;;;22.07;7.53;;;7.90;99.90;;;;;;5133444;27;20540;-68
2022/04/08 04:19:59;;;;;;;22.53;6.73;;;8.00;99.90;;;;;;5133441;27;20207;-69
2022/04/08 04:22:26;;;;;;;20.53;6.83;;;7.90;99.90;;;;;;5132919;27;20244;-67
2022/04/08 04:24:52;;;;;;;13.27;6.23;;;7.90;99.90;;;;;;5133298;27;20747;-68
2022/04/08 04:27:19;;;;;;;17.53;6.70;;;7.90;99.90;;;;;;5132723;27;20237;-67
2022/04/08 04:29:46;;;;;;;14.37;5.80;;;7.90;99.90;;;;;;5133213;27;20257;-68
2022/04/08 04:32:13;;;;;;;23.37;6.63;;;7.90;99.90;;;;;;5133040;27;20237;-68
2022/04/08 04:34:41;;;;;;;16.17;6.83;;;7.90;99.90;;;;;;5133194;27;20621;-68
2022/04/08 04:37:09;;;;;;;21.80;8.67;;;7.90;99.90;;;;;;5132487;27;20238;-68
2022/04/08 04:39:36;;;;;;;19.97;8.37;;;7.90;99.90;;;;;;5132869;27;20203;-67
2022/04/08 04:42:04;;;;;;;18.37;7.97;;;7.90;99.90;;;;;;5133279;27;20234;-67
2022/04/08 04:44:31;;;;;;;19.90;9.23;;;7.90;99.90;;;;;;5132629;27;20289;-67
2022/04/08 04:46:58;;;;;;;22.77;8.97;;;7.80;99.90;;;;;;5133065;27;20543;-68
2022/04/08 04:49:25;;;;;;;23.53;9.60;;;7.80;99.90;;;;;;5132660;27;20309;-67
2022/04/08 04:51:53;;;;;;;22.77;9.30;;;7.80;99.90;;;;;;5132746;28;20245;-68
2022/04/08 04:54:20;;;;;;;22.70;9.43;;;7.80;99.90;;;;;;5132417;28;20294;-68
2022/04/08 04:56:47;;;;;;;15.33;8.73;;;7.90;99.90;;;;;;5132613;28;20238;-66
2022/04/08 04:59:14;;;;;;;15.80;6.77;;;8.00;99.90;;;;;;5132597;28;20195;-68
2022/04/08 05:01:41;;;;;;;16.17;7.33;;;8.00;99.90;;;;;;5132116;28;20266;-68
2022/04/08 05:04:08;;;;;;;17.47;6.80;;;8.00;99.90;;;;;;5132563;28;20302;-68
2022/04/08 05:06:35;;;;;;;12.53;6.10;;;8.00;99.90;;;;;;5132730;28;20234;-68
2022/04/08 05:09:05;;;;;;;20.50;7.40;;;8.00;99.90;;;;;;5133396;27;20332;-69
2022/04/08 05:11:32;;;;;;;18.97;8.43;;;8.00;99.90;;;;;;5137024;27;20254;-67
2022/04/08 05:14:00;;;;;;;18.30;8.93;;;8.00;99.90;;;;;;5136896;27;20241;-67
2022/04/08 05:16:27;;;;;;;21.27;8.23;;;8.00;99.90;;;;;;5136606;27;20254;-67
2022/04/08 05:18:54;;;;;;;21.13;8.53;;;8.10;99.90;;;;;;5136587;27;20290;-68
2022/04/08 05:21:21;;;;;;;20.00;8.17;;;8.10;99.90;;;;;;5136411;27;20293;-67
2022/04/08 05:23:48;;;;;;;17.40;8.63;;;8.20;99.90;;;;;;5136827;27;20203;-70
2022/04/08 05:26:17;;;;;;;20.43;7.40;;;8.20;99.90;;;;;;5136795;27;20670;-69
2022/04/08 05:28:44;;;;;;;14.87;6.73;;;8.30;99.90;;;;;;5136546;27;20273;-69
2022/04/08 05:31:11;;;;;;;23.23;6.50;;;8.30;99.90;;;;;;5136788;27;20265;-67
2022/04/08 05:33:38;;;;;;;15.97;5.90;;;8.50;99.90;;;;;;5136486;27;20289;-68
2022/04/08 05:36:05;;;;;;;18.83;5.87;;;8.50;99.90;;;;;;5136038;27;20317;-68
2022/04/08 05:38:32;;;;;;;14.20;5.40;;;8.50;99.90;;;;;;5136737;27;20238;-68
2022/04/08 05:40:59;;;;;;;14.93;5.97;;;8.60;99.90;;;;;;5136377;27;20238;-68
2022/04/08 05:43:27;;;;;;;19.90;6.20;;;8.70;99.90;;;;;;5136149;27;20440;-68
2022/04/08 05:45:54;;;;;;;22.80;6.60;;;8.80;99.90;;;;;;5138737;27;20238;-67
2022/04/08 05:48:21;;;;;;;14.37;6.63;;;8.90;99.90;;;;;;5136308;27;20309;-67
2022/04/08 05:50:48;;;;;;;16.87;6.27;;;8.90;99.90;;;;;;5136327;27;20632;-68
2022/04/08 05:53:15;;;;;;;18.27;5.87;;;9.00;99.90;;;;;;5136196;27;20294;-68
2022/04/08 05:55:42;;;;;;;15.23;5.40;;;9.10;99.90;;;;;;5136328;27;20609;-68
2022/04/08 05:58:09;;;;;;;15.40;4.90;;;9.20;99.90;;;;;;5135744;27;20214;-68
2022/04/08 06:00:38;;;;;;;20.13;5.87;;;9.30;99.90;;;;;;5136293;27;20743;-68
2022/04/08 06:03:05;;;;;;;18.80;5.20;;;9.30;99.90;;;;;;5135478;27;20246;-69
2022/04/08 06:05:31;;;;;;;18.97;5.83;;;9.40;99.90;;;;;;5135725;27;20294;-69
2022/04/08 06:07:58;;;;;;;16.40;6.03;;;9.50;99.90;;;;;;5135377;27;20245;-69
2022/04/08 06:10:26;;;;;;;15.93;6.23;;;9.60;99.90;;;;;;5136266;27;20238;-68
2022/04/08 06:12:55;;;;;;;21.87;5.53;;;9.70;99.90;;;;;;5135623;27;20614;-69
2022/04/08 06:15:22;;;;;;;22.37;6.00;;;9.70;99.90;;;;;;5135859;27;20234;-68
2022/04/08 06:17:50;;;;;;;16.63;5.20;;;9.70;99.90;;;;;;5135505;27;20238;-69
2022/04/08 06:20:18;;;;;;;12.90;5.40;;;9.80;99.90;;;;;;5135001;27;20202;-69
2022/04/08 06:22:47;;;;;;;12.33;5.47;;;9.80;99.90;;;;;;5135121;27;20715;-70
2022/04/08 06:25:16;;;;;;;18.97;7.47;;;9.90;99.90;;;;;;5135320;27;20222;-68
2022/04/08 06:27:44;;;;;;;22.57;6.50;;;9.90;99.90;;;;;;5135574;27;20203;-67
2022/04/08 06:30:14;;;;;;;14.93;5.33;;;10.00;99.90;;;;;;5135255;27;20230;-68
2022/04/08 06:32:43;;;;;;;17.67;6.53;;;10.10;99.90;;;;;;5135817;27;20199;-68
2022/04/08 06:35:11;;;;;;;17.23;5.60;;;10.10;99.90;;;;;;5134792;27;20230;-68
2022/04/08 06:37:38;;;;;;;17.20;5.57;;;10.20;99.90;;;;;;5135408;27;20210;-69
2022/04/08 06:40:07;;;;;;;14.23;4.83;;;10.20;99.90;;;;;;5135180;27;20237;-67
2022/04/08 06:42:34;;;;;;;12.33;5.47;;;10.30;99.90;;;;;;5135295;27;20247;-66
2022/04/08 06:45:01;;;;;;;17.87;5.87;;;10.40;99.90;;;;;;5135063;27;20294;-67
2022/04/08 06:47:28;;;;;;;14.73;5.93;;;10.50;99.90;;;;;;5135226;27;20633;-69
2022/04/08 06:49:55;;;;;;;16.27;5.57;;;10.50;99.90;;;;;;5134966;27;20309;-68
2022/04/08 06:52:24;;;;;;;13.93;4.80;;;10.60;99.90;;;;;;5135089;27;20290;-67
2022/04/08 06:54:51;;;;;;;16.70;5.40;;;10.80;99.90;;;;;;5134850;27;20618;-68
2022/04/08 06:57:17;;;;;;;15.10;5.30;;;10.80;99.90;;;;;;5134537;27;20238;-67
2022/04/08 06:59:45;;;;;;;14.03;4.93;;;10.90;99.90;;;;;;5134557;27;20245;-69
2022/04/08 07:02:11;;;;;;;15.90;5.53;;;11.00;99.90;;;;;;5134897;27;20230;-67
2022/04/08 07:04:38;;;;;;;17.70;5.80;;;11.10;99.90;;;;;;5134528;27;20242;-67
2022/04/08 07:07:05;;;;;;;19.70;5.37;;;11.20;99.90;;;;;;5134252;27;20203;-68
2022/04/08 07:09:34;;;;;;;14.87;4.60;;;11.30;99.90;;;;;;5134539;27;20305;-68
2022/04/08 07:12:02;;;;;;;13.13;4.67;;;11.40;99.90;;;;;;5134419;27;20293;-67
2022/04/08 07:14:29;;;;;;;14.50;5.03;;;11.50;99.90;;;;;;5134609;27;20234;-67
2022/04/08 07:16:56;;;;;;;15.80;4.63;;;11.60;99.90;;;;;;5134021;27;20253;-68
2022/04/08 07:19:23;;;;;;;16.90;4.97;;;11.70;99.90;;;;;;5134551;27;20656;-69
2022/04/08 07:21:50;;;;;;;14.17;4.90;;;11.80;99.90;;;;;;5134244;27;20581;-67
2022/04/08 07:24:17;;;;;;;13.93;4.50;;;11.80;99.90;;;;;;5134394;27;20245;-68
2022/04/08 07:26:45;;;;;;;15.43;4.97;;;11.90;99.90;;;;;;5133955;27;20390;-68
2022/04/08 07:29:13;;;;;;;14.43;4.90;;;11.90;99.90;;;;;;5134245;27;20309;-69
2022/04/08 07:31:40;;;;;;;14.33;4.50;;;11.90;99.90;;;;;;5134059;27;20601;-68
2022/04/08 07:34:07;;;;;;;14.57;5.47;;;12.00;99.90;;;;;;5133972;27;20229;-68
2022/04/08 07:36:34;;;;;;;15.03;5.20;;;12.10;99.90;;;;;;5133907;27;20305;-68
2022/04/08 07:39:01;;;;;;;12.27;5.60;;;12.10;99.90;;;;;;5133777;27;20467;-69
2022/04/08 07:41:28;;;;;;;17.50;5.43;;;12.10;99.90;;;;;;5133661;27;20207;-68
2022/04/08 07:43:56;;;;;;;17.00;5.53;;;12.20;99.90;;;;;;5133839;27;20230;-69
2022/04/08 07:46:23;;;;;;;16.47;5.17;;;12.30;99.90;;;;;;5133953;27;20773;-67
2022/04/08 07:48:50;;;;;;;13.17;5.73;;;12.30;99.90;;;;;;5133448;27;20222;-67
2022/04/08 07:51:17;;;;;;;13.10;5.20;;;12.30;99.90;;;;;;5133589;27;20241;-67
2022/04/08 07:53:44;;;;;;;15.03;5.40;;;12.30;99.90;;;;;;5133350;27;20242;-68
2022/04/08 07:56:11;;;;;;;13.10;6.53;;;12.30;99.90;;;;;;5133457;27;20294;-67
2022/04/08 07:58:38;;;;;;;19.37;6.10;;;12.30;99.90;;;;;;5133646;27;20281;-68
2022/04/08 08:01:06;;;;;;;15.63;5.90;;;12.30;99.90;;;;;;5133787;27;20261;-68
2022/04/08 08:03:34;;;;;;;18.03;7.20;;;12.20;99.90;;;;;;5133283;27;20238;-69
2022/04/08 08:06:03;;;;;;;15.30;7.33;;;12.20;99.90;;;;;;5133634;27;20217;-68
2022/04/08 08:08:30;;;;;;;15.90;6.70;;;12.10;99.90;;;;;;5133641;27;20298;-68
2022/04/08 08:10:57;;;;;;;16.47;6.43;;;12.10;99.90;;;;;;5133550;27;20706;-69
2022/04/08 08:13:24;;;;;;;17.27;5.70;;;12.10;99.90;;;;;;5133148;27;20306;-69
2022/04/08 08:15:51;;;;;;;18.20;5.63;;;12.10;99.90;;;;;;5133384;27;20241;-68
2022/04/08 08:18:21;;;;;;;16.13;5.77;;;12.10;99.90;;;;;;5133197;27;20209;-68
2022/04/08 08:20:49;;;;;;;16.97;5.90;;;12.10;99.90;;;;;;5132858;27;20187;-68
2022/04/08 08:23:16;;;;;;;19.17;5.87;;;12.20;99.90;;;;;;5133400;27;20207;-68
2022/04/08 08:25:44;;;;;;;14.27;5.67;;;12.30;99.90;;;;;;5132822;27;20293;-68
2022/04/08 08:28:11;;;;;;;15.23;5.90;;;12.30;99.90;;;;;;5133262;27;20206;-69
2022/04/08 08:30:39;;;;;;;13.60;5.37;;;12.40;99.90;;;;;;5132730;27;20227;-69
2022/04/08 08:33:06;;;;;;;13.03;6.00;;;12.50;99.90;;;;;;5133281;27;20209;-69
2022/04/08 08:35:35;;;;;;;16.13;5.87;;;12.60;99.90;;;;;;5132765;27;20504;-68
2022/04/08 08:38:03;;;;;;;15.43;5.80;;;12.70;99.90;;;;;;5132886;27;20238;-68
2022/04/08 08:40:32;;;;;;;12.03;5.73;;;12.80;99.90;;;;;;5133205;27;20670;-68
2022/04/08 08:43:00;;;;;;;14.47;5.90;;;12.80;99.90;;;;;;5133157;27;20218;-67
2022/04/08 08:45:32;;;;;;;16.53;5.73;;;13.00;99.90;;;;;;5132256;27;20199;-67
2022/04/08 08:48:00;;;;;;;13.80;5.50;;;13.20;99.90;;;;;;5133123;27;20305;-67
2022/04/08 08:50:28;;;;;;;10.37;4.67;;;13.30;99.90;;;;;;5132884;27;20761;-68
2022/04/08 08:52:57;;;;;;;14.43;5.60;;;13.40;99.90;;;;;;5133099;27;20209;-69
2022/04/08 08:55:26;;;;;;;16.10;5.23;;;13.60;99.90;;;;;;5132869;28;20239;-67
2022/04/08 08:57:53;;;;;;;13.23;5.00;;;13.60;99.90;;;;;;5132806;28;20609;-68
2022/04/08 09:00:23;;;;;;;13.63;5.67;;;13.70;99.90;;;;;;5132794;28;20205;-70
2022/04/08 09:02:50;;;;;;;14.00;4.77;;;13.80;99.90;;;;;;5132496;27;20206;-69
2022/04/08 09:05:20;;;;;;;13.30;4.80;;;14.00;99.90;;;;;;5132391;28;20293;-69
2022/04/08 09:07:59;;;;;;;14.40;5.30;;;14.00;99.90;;;;;;5132458;28;20213;-68
2022/04/08 09:10:30;;;;;;;15.10;5.23;;;14.10;99.90;;;;;;5133046;28;20605;-67
2022/04/08 09:13:00;;;;;;;15.03;6.00;;;14.20;99.90;;;;;;5132443;27;20230;-68
2022/04/08 09:15:27;;;;;;;13.27;5.33;;;14.30;99.90;;;;;;5132483;28;20550;-69
2022/04/08 09:17:55;;;;;;;16.60;5.10;;;14.40;99.90;;;;;;5132299;28;20255;-69
2022/04/08 09:20:22;;;;;;;11.00;5.30;;;14.40;99.90;;;;;;5132639;27;20282;-69
2022/04/08 09:22:57;;;;;;;10.30;5.10;;;14.50;99.90;;;;;;5132471;27;20658;-68
2022/04/08 09:25:27;;;;;;;10.77;5.33;;;14.50;99.90;;;;;;5132199;27;20297;-68
2022/04/08 09:27:59;;;;;;;11.17;5.27;;;14.60;99.90;;;;;;5132240;27;20210;-68
2022/04/08 09:30:29;;;;;;;15.17;5.27;;;14.70;99.90;;;;;;5132005;27;20230;-67
2022/04/08 09:32:56;;;;;;;13.57;5.33;;;14.70;99.90;;;;;;5132448;28;20210;-68
2022/04/08 09:35:24;;;;;;;12.83;4.40;;;14.70;99.90;;;;;;5131941;28;20238;-67
2022/04/08 09:38:00;;;;;;;12.77;5.10;;;14.90;99.90;;;;;;5132477;27;20212;-69
2022/04/08 09:40:36;;;;;;;12.07;4.87;;;14.90;99.90;;;;;;5132320;27;20198;-68
2022/04/08 09:43:04;;;;;;;18.97;4.90;;;15.00;99.90;;;;;;5132234;27;20194;-68
2022/04/08 09:45:31;;;;;;;13.17;4.90;;;15.10;99.90;;;;;;5131841;28;20207;-68
2022/04/08 09:47:59;;;;;;;10.73;4.70;;;15.10;99.90;;;;;;5132146;27;20203;-68
2022/04/08 09:50:27;;;;;;;9.83;4.90;;;15.20;99.90;;;;;;5131713;28;20222;-69
2022/04/08 09:52:54;;;;;;;8.87;4.70;;;15.30;99.90;;;;;;5132324;27;20679;-68
2022/04/08 09:55:24;;;;;;;11.07;4.70;;;15.30;99.90;;;;;;5132322;27;20661;-68
2022/04/08 09:57:58;;;;;;;13.13;4.90;;;15.40;99.90;;;;;;5135545;27;20232;-69
2022/04/08 10:00:26;;;;;;;10.73;4.70;;;15.40;99.90;;;;;;5135584;27;20179;-68
2022/04/08 10:02:56;;;;;;;10.53;4.83;;;15.40;99.90;;;;;;5135576;27;20207;-68
2022/04/08 10:05:23;;;;;;;13.77;5.20;;;15.50;99.90;;;;;;5135759;27;20579;-68
2022/04/08 10:07:53;;;;;;;12.57;4.97;;;15.50;99.90;;;;;;5135952;27;20630;-69
2022/04/08 10:10:27;;;;;;;14.50;4.70;;;15.60;99.90;;;;;;5135671;27;20240;-68
2022/04/08 10:13:25;;;;;;;9.70;5.03;;;15.80;99.90;;;;;;5135685;27;20187;-68
2022/04/08 10:16:02;;;;;;;13.90;5.07;;;15.90;99.90;;;;;;5135841;27;20209;-68
2022/04/08 10:18:38;;;;;;;10.83;5.00;;;16.00;99.90;;;;;;5135701;27;20611;-68
2022/04/08 10:21:05;;;;;;;11.63;5.10;;;16.00;99.90;;;;;;5135310;27;20530;-68
2022/04/08 10:23:38;;;;;;;13.73;4.80;;;16.00;99.90;;;;;;5135303;27;20203;-69
2022/04/08 10:26:06;;;;;;;17.43;5.20;;;16.00;99.90;;;;;;5135560;27;20572;-68
2022/04/08 10:28:41;;;;;;;9.20;5.10;;;15.90;99.90;;;;;;5135098;27;20203;-68
2022/04/08 10:31:20;;;;;;;12.03;4.67;;;15.80;99.90;;;;;;5135148;27;20246;-68
2022/04/08 10:33:56;;;;;;;11.10;5.00;;;15.80;99.90;;;;;;5135459;27;20218;-68
2022/04/08 10:36:33;;;;;;;13.20;5.10;;;15.80;99.90;;;;;;5134809;27;20582;-69
2022/04/08 10:39:16;;;;;;;13.03;4.97;;;15.80;99.90;;;;;;5135480;27;20201;-68
2022/04/08 10:41:51;;;;;;;12.03;5.17;;;15.80;99.90;;;;;;5132757;27;20215;-68
2022/04/08 10:44:33;;;;;;;12.77;5.17;;;15.80;99.90;;;;;;5135207;27;20264;-68
2022/04/08 10:47:02;;;;;;;11.67;5.00;;;15.80;99.90;;;;;;5135071;27;20183;-68
2022/04/08 10:49:31;;;;;;;15.37;5.03;;;15.70;99.90;;;;;;5134832;27;20564;-68
2022/04/08 10:51:58;;;;;;;8.23;4.60;;;15.60;99.90;;;;;;5135154;27;20654;-68
2022/04/08 10:54:36;;;;;;;11.63;4.87;;;15.50;99.90;;;;;;5134602;27;20207;-68
2022/04/08 10:57:04;;;;;;;10.77;5.20;;;15.30;99.90;;;;;;5134783;27;20193;-68
2022/04/08 10:59:33;;;;;;;8.30;4.10;;;15.20;99.90;;;;;;5134440;27;20203;-68
2022/04/08 11:02:05;;;;;;;10.97;4.47;;;15.10;99.90;;;;;;5134669;27;20203;-67
2022/04/08 11:04:34;;;;;;;10.87;4.47;;;14.90;99.90;;;;;;5134452;27;20190;-68
2022/04/08 11:07:06;;;;;;;10.07;4.63;;;14.80;99.90;;;;;;5134172;27;20209;-68
2022/04/08 11:09:34;;;;;;;13.57;5.23;;;14.70;99.90;;;;;;5134304;27;20191;-67
2022/04/08 11:12:03;;;;;;;10.37;3.70;;;14.50;99.90;;;;;;5134881;27;20202;-68
2022/04/08 11:14:32;;;;;;;6.80;3.70;;;14.10;99.90;;;;;;5134187;27;20206;-68
2022/04/08 11:16:59;;;;;;;7.83;3.90;;;13.80;99.90;;;;;;5134221;27;20210;-69
2022/04/08 11:19:28;;;;;;;8.37;4.00;;;13.40;99.90;;;;;;5134091;27;20211;-68
2022/04/08 11:21:55;;;;;;;6.17;3.73;;;13.10;99.90;;;;;;5134429;27;20199;-70
2022/04/08 11:24:22;;;;;;;10.03;4.37;;;12.90;99.90;;;;;;5134021;27;20215;-69
2022/04/08 11:26:51;;;;;;;9.93;5.00;;;12.60;99.90;;;;;;5097840;27;20210;-68
2022/04/08 11:29:20;;;;;;;10.50;5.13;;;12.50;99.90;;;;;;5134394;27;20710;-68
2022/04/08 11:31:51;;;;;;;9.03;5.77;;;12.40;99.90;;;;;;5133956;27;20271;-67
2022/04/08 11:34:19;;;;;;;10.30;5.40;;;12.20;99.90;;;;;;5134207;27;20658;-68
2022/04/08 11:36:47;;;;;;;11.53;5.43;;;12.10;99.90;;;;;;5133743;27;20318;-66
2022/04/08 11:39:21;;;;;;;9.67;4.97;;;12.00;99.90;;;;;;5133733;27;20210;-67
2022/04/08 11:41:53;;;;;;;8.87;5.07;;;11.90;99.90;;;;;;5133924;27;20190;-68
2022/04/08 11:44:21;;;;;;;9.67;4.90;;;11.80;99.90;;;;;;5133989;27;20600;-68
2022/04/08 11:46:51;;;;;;;10.30;5.53;;;11.60;99.90;;;;;;5133615;27;20229;-67
2022/04/08 11:49:21;;;;;;;9.83;5.67;;;11.50;99.90;;;;;;5133433;27;20202;-68
2022/04/08 11:51:49;;;;;;;12.57;5.30;;;11.50;99.90;;;;;;5133875;27;20784;-68
2022/04/08 11:54:24;;;;;;;8.23;5.03;;;11.40;99.90;;;;;;5133520;27;20213;-69
2022/04/08 11:56:53;;;;;;;9.33;5.17;;;11.40;99.90;;;;;;5133999;27;20593;-68
2022/04/08 11:59:21;;;;;;;12.37;5.73;;;11.50;99.90;;;;;;5133276;27;20207;-67
2022/04/08 12:01:50;;;;;;;7.47;4.23;;;11.60;99.90;;;;;;5133563;27;20199;-68
2022/04/08 12:04:19;;;;;;;11.47;6.63;;;11.50;99.90;;;;;;5133319;27;20210;-67
2022/04/08 12:06:48;;;;;;;14.63;6.57;;;11.30;99.90;;;;;;5133417;27;20210;-68
2022/04/08 12:09:20;;;;;;;15.93;6.83;;;11.10;99.90;;;;;;5133291;27;20199;-68
2022/04/08 12:11:48;;;;;;;7.70;3.30;;;11.00;99.90;;;;;;5133437;27;20214;-68
2022/04/08 12:14:19;;;;;;;4.67;2.17;;;10.90;99.90;;;;;;5133049;27;20218;-68
2022/04/08 12:16:48;;;;;;;3.03;2.13;;;10.80;99.90;;;;;;5133210;27;20189;-67
2022/04/08 12:19:18;;;;;;;5.13;2.03;;;10.70;99.90;;;;;;5131398;27;20540;-68
2022/04/08 12:21:48;;;;;;;4.03;2.10;;;10.50;99.90;;;;;;5133277;27;20187;-69
2022/04/08 12:24:18;;;;;;;4.53;1.87;;;10.40;99.90;;;;;;5133030;27;20202;-68
2022/04/08 12:26:47;;;;;;;2.70;2.00;;;10.40;99.90;;;;;;5133325;27;20281;-68
2022/04/08 12:29:16;;;;;;;3.97;1.80;;;10.30;99.90;;;;;;5133078;27;20321;-69
2022/04/08 12:31:47;;;;;;;3.20;2.07;;;10.30;99.90;;;;;;5132819;27;20223;-68
2022/04/08 12:34:17;;;;;;;2.23;1.90;;;10.20;99.90;;;;;;5132762;27;20206;-68
2022/04/08 12:36:45;;;;;;;2.53;1.80;;;10.30;99.90;;;;;;5132603;27;20227;-68
2022/04/08 12:39:15;;;;;;;4.60;2.07;;;10.30;99.90;;;;;;5133037;27;20202;-68
2022/04/08 12:41:43;;;;;;;3.43;1.70;;;10.30;99.90;;;;;;5132886;27;20207;-67
2022/04/08 12:44:11;;;;;;;3.17;2.10;;;10.30;99.90;;;;;;5132503;27;20203;-68
2022/04/08 12:46:39;;;;;;;4.30;2.20;;;10.40;99.90;;;;;;5132700;27;20203;-67
2022/04/08 12:49:07;;;;;;;5.33;2.57;;;10.30;99.90;;;;;;5132601;27;20199;-68